SKVV/VVC METAR and TAF weather

Enter ICAO airport designator
Station Type Date Time Source
SKVV METAR 2018/12/10 00:00 UTC NOAA

SKVV 100000Z 28004KT 9999 SCT020 SCT090 26/21 A2990


Station Type Date Time Source
SKVV Decoded METAR 2018/12/10 00:00 UTC NOAA

Villavicencio / Vanguardia, Colombia (SKVV) 04-10N 073-37W 431M
Dec 09, 2018 - 07:00 PM EST / 2018.12.10 0000 UTC
Wind: from the W (280 degrees) at 5 MPH (4 KT):0
Visibility: greater than 7 mile(s):0
Sky conditions: partly cloudy
Temperature: 78 F (26 C)
Dew Point: 69 F (21 C)
Relative Humidity: 73%
Pressure (altimeter): 29.9 in. Hg (1012 hPa)
ob: SKVV 100000Z 28004KT 9999 SCT020 SCT090 26/21 A2990
cycle: 0

Station Type Date Time Source
SKVV TAF UTC NOAA

Error!


Example: see airport list